createdAt,value
2019-04-03T00:00:41.445Z,14.23
2019-04-03T00:03:10.759Z,13.87
2019-04-03T00:05:40.068Z,14.30
2019-04-03T00:08:09.403Z,13.93
2019-04-03T00:10:38.740Z,14.13
2019-04-03T00:13:10.455Z,14.80
2019-04-03T00:15:39.081Z,14.30
2019-04-03T00:18:08.672Z,14.20
2019-04-03T00:20:37.980Z,13.47
2019-04-03T00:23:07.364Z,14.00
2019-04-03T00:25:36.872Z,13.17
2019-04-03T00:28:06.188Z,13.20
2019-04-03T00:30:35.556Z,13.43
2019-04-03T00:33:04.903Z,13.07
2019-04-03T00:35:34.414Z,12.67
2019-04-03T00:38:03.923Z,12.30
2019-04-03T00:40:33.309Z,13.37
2019-04-03T00:43:02.692Z,12.77
2019-04-03T00:45:32.000Z,12.77
2019-04-03T00:48:01.345Z,12.93
2019-04-03T00:50:30.699Z,12.83
2019-04-03T00:53:00.019Z,13.13
2019-04-03T00:55:29.409Z,13.60
2019-04-03T00:57:58.802Z,13.17
2019-04-03T01:00:28.105Z,12.53
2019-04-03T01:02:58.886Z,12.87
2019-04-03T01:05:29.080Z,12.97
2019-04-03T01:07:59.901Z,14.23
2019-04-03T01:10:30.227Z,13.37
2019-04-03T01:13:01.665Z,13.63
2019-04-03T01:15:31.614Z,13.93
2019-04-03T01:18:04.303Z,13.37
2019-04-03T01:20:32.476Z,14.33
2019-04-03T01:23:01.793Z,14.03
2019-04-03T01:25:31.089Z,14.00
2019-04-03T01:28:00.407Z,13.17
2019-04-03T01:30:29.738Z,13.00
2019-04-03T01:32:59.045Z,14.93
2019-04-03T01:35:28.352Z,12.67
2019-04-03T01:37:57.680Z,14.07
2019-04-03T01:40:26.992Z,13.10
2019-04-03T01:42:56.332Z,13.87
2019-04-03T01:45:26.253Z,13.37
2019-04-03T01:47:57.443Z,13.87
2019-04-03T01:50:28.639Z,14.13
2019-04-03T01:53:01.931Z,13.73
2019-04-03T01:55:30.304Z,14.43
2019-04-03T01:57:59.613Z,12.80
2019-04-03T02:00:28.930Z,13.03
2019-04-03T02:02:58.236Z,13.90
2019-04-03T02:05:27.640Z,13.33
2019-04-03T02:07:56.952Z,13.70
2019-04-03T02:10:26.721Z,14.20
2019-04-03T02:12:56.058Z,13.23
2019-04-03T02:15:25.416Z,13.90
2019-04-03T02:17:55.266Z,13.67
2019-04-03T02:20:26.499Z,12.80
2019-04-03T02:22:55.779Z,13.03
2019-04-03T02:25:25.211Z,13.00
2019-04-03T02:27:54.600Z,12.93
2019-04-03T02:30:23.928Z,12.37
2019-04-03T02:32:56.616Z,12.47
2019-04-03T02:35:24.331Z,13.07
2019-04-03T02:37:53.636Z,12.17
2019-04-03T02:40:22.957Z,13.33
2019-04-03T02:42:52.429Z,13.20
2019-04-03T02:45:23.968Z,13.07
2019-04-03T02:47:53.278Z,13.23
2019-04-03T02:50:26.168Z,12.77
2019-04-03T02:52:58.067Z,13.33
2019-04-03T02:55:26.893Z,14.63
2019-04-03T02:57:56.197Z,14.50
2019-04-03T03:00:25.512Z,14.03
2019-04-03T03:02:54.994Z,13.37
2019-04-03T03:05:26.726Z,13.40
2019-04-03T03:07:55.322Z,13.83
2019-04-03T03:10:24.716Z,15.47
2019-04-03T03:12:55.352Z,14.67
2019-04-03T03:15:27.204Z,14.20
2019-04-03T03:17:56.580Z,14.80
2019-04-03T03:20:28.754Z,14.80
2019-04-03T03:22:58.745Z,15.13
2019-04-03T03:25:32.239Z,15.60
2019-04-03T03:27:59.468Z,14.97
2019-04-03T03:30:42.037Z,16.33
2019-04-03T03:33:25.130Z,16.97
2019-04-03T03:35:40.511Z,16.70
2019-04-03T03:38:07.085Z,16.87
2019-04-03T03:40:37.121Z,17.60
2019-04-03T03:43:06.885Z,17.07
2019-04-03T03:45:36.408Z,17.47
2019-04-03T03:48:09.150Z,16.33
2019-04-03T03:50:36.993Z,17.43
2019-04-03T03:53:10.156Z,17.20
2019-04-03T03:55:37.781Z,17.47
2019-04-03T03:58:11.055Z,17.90
2019-04-03T04:00:38.888Z,17.63
2019-04-03T04:03:10.835Z,16.37
2019-04-03T04:05:39.778Z,17.40
2019-04-03T04:08:11.512Z,17.37
2019-04-03T04:10:42.421Z,17.07
2019-04-03T04:13:15.080Z,17.60
2019-04-03T04:15:43.921Z,18.17
2019-04-03T04:18:15.054Z,16.93
2019-04-03T04:20:44.666Z,20.73
2019-04-03T04:23:14.003Z,18.30
2019-04-03T04:25:44.490Z,16.77
2019-04-03T04:28:14.089Z,16.80
2019-04-03T04:30:46.456Z,16.10
2019-04-03T04:33:16.941Z,16.53
2019-04-03T04:35:46.796Z,16.67
2019-04-03T04:38:16.367Z,16.97
2019-04-03T04:40:45.933Z,19.37
2019-04-03T04:43:16.257Z,18.30
2019-04-03T04:45:45.580Z,18.40
2019-04-03T04:48:16.555Z,17.60
2019-04-03T04:50:45.915Z,17.60
2019-04-03T04:53:15.581Z,17.13
2019-04-03T04:55:45.956Z,18.10
2019-04-03T04:58:15.267Z,17.90
2019-04-03T05:00:46.586Z,18.50
2019-04-03T05:03:15.597Z,16.77
2019-04-03T05:05:44.914Z,18.60
2019-04-03T05:08:14.220Z,17.33
2019-04-03T05:10:43.551Z,17.03
2019-04-03T05:13:13.866Z,17.87
2019-04-03T05:15:44.066Z,18.07
2019-04-03T05:18:13.604Z,18.67
2019-04-03T05:20:43.180Z,18.63
2019-04-03T05:23:12.577Z,17.63
2019-04-03T05:25:42.265Z,17.10
2019-04-03T05:28:12.555Z,18.03
2019-04-03T05:30:42.048Z,17.33
2019-04-03T05:33:11.866Z,17.70
2019-04-03T05:35:41.257Z,18.40
2019-04-03T05:38:10.575Z,18.60
2019-04-03T05:40:40.075Z,17.37
2019-04-03T05:43:11.039Z,17.83
2019-04-03T05:45:41.828Z,17.43
2019-04-03T05:48:13.404Z,18.90
2019-04-03T05:50:42.661Z,17.63
2019-04-03T05:53:11.977Z,19.47
2019-04-03T05:55:41.745Z,17.23
2019-04-03T05:58:11.185Z,16.83
2019-04-03T06:00:40.759Z,18.40
2019-04-03T06:03:10.083Z,18.67
2019-04-03T06:05:39.385Z,19.13
2019-04-03T06:08:08.717Z,18.63
2019-04-03T06:10:38.041Z,19.07
2019-04-03T06:13:07.352Z,19.57
2019-04-03T06:15:36.656Z,18.73
2019-04-03T06:18:07.175Z,20.10
2019-04-03T06:20:36.528Z,18.67
2019-04-03T06:23:05.830Z,19.00
2019-04-03T06:25:35.165Z,19.67
2019-04-03T06:28:05.501Z,19.77
2019-04-03T06:30:35.036Z,19.20
2019-04-03T06:33:04.508Z,18.73
2019-04-03T06:35:35.457Z,19.07
2019-04-03T06:38:04.890Z,20.00
2019-04-03T06:40:35.541Z,19.70
2019-04-03T06:43:05.333Z,18.73
2019-04-03T06:45:34.794Z,18.97
2019-04-03T06:48:05.096Z,18.97
2019-04-03T06:50:34.911Z,19.50
2019-04-03T06:53:04.287Z,21.10
2019-04-03T06:55:35.648Z,20.53
2019-04-03T06:58:04.633Z,20.83
2019-04-03T07:00:35.112Z,20.77
2019-04-03T07:03:04.568Z,21.67
2019-04-03T07:05:34.238Z,21.03
2019-04-03T07:08:05.149Z,21.03
2019-04-03T07:10:36.516Z,21.27
2019-04-03T07:13:05.663Z,23.17
2019-04-03T07:15:35.202Z,22.30
2019-04-03T07:18:05.830Z,22.70
2019-04-03T07:20:36.166Z,21.87
2019-04-03T07:23:05.625Z,22.07
2019-04-03T07:25:35.099Z,20.27
2019-04-03T07:28:04.452Z,20.93
2019-04-03T07:30:33.861Z,19.73
2019-04-03T07:33:05.290Z,20.00
2019-04-03T07:35:34.205Z,20.33
2019-04-03T07:38:03.688Z,20.17
2019-04-03T07:40:33.258Z,21.00
2019-04-03T07:43:02.721Z,21.63
2019-04-03T07:45:33.014Z,20.40
2019-04-03T07:48:06.092Z,20.97
2019-04-03T07:50:36.449Z,22.00
2019-04-03T07:53:05.038Z,20.67
2019-04-03T07:55:34.517Z,21.23
2019-04-03T07:58:03.932Z,21.00
2019-04-03T08:00:33.250Z,21.13
2019-04-03T08:03:02.593Z,20.97
2019-04-03T08:05:32.091Z,20.93
2019-04-03T08:08:02.133Z,21.47
2019-04-03T08:10:31.897Z,21.20
2019-04-03T08:13:01.278Z,22.03
2019-04-03T08:15:30.887Z,20.83
2019-04-03T08:18:00.303Z,21.73
2019-04-03T08:20:31.362Z,20.83
2019-04-03T08:23:04.686Z,20.77
2019-04-03T08:25:32.612Z,21.03
2019-04-03T08:28:01.980Z,19.20
2019-04-03T08:30:31.338Z,22.03
2019-04-03T08:33:00.664Z,21.70
2019-04-03T08:35:29.982Z,20.63
2019-04-03T08:37:59.396Z,20.30
2019-04-03T08:40:28.871Z,19.57
2019-04-03T08:43:00.625Z,20.37
2019-04-03T08:45:29.380Z,20.73
2019-04-03T08:47:58.698Z,18.33
2019-04-03T08:50:28.808Z,17.83
2019-04-03T08:52:58.509Z,17.80
2019-04-03T08:55:27.828Z,17.67
2019-04-03T08:57:57.444Z,17.97
2019-04-03T09:00:26.833Z,18.40
2019-04-03T09:02:56.160Z,18.30
2019-04-03T09:05:25.472Z,18.20
2019-04-03T09:07:56.093Z,17.90
2019-04-03T09:10:27.222Z,16.90
2019-04-03T09:12:56.779Z,18.07
2019-04-03T09:15:28.260Z,17.03
2019-04-03T09:17:58.405Z,18.63
2019-04-03T09:20:27.807Z,17.73
2019-04-03T09:22:57.160Z,17.53
2019-04-03T09:25:26.475Z,17.70
2019-04-03T09:27:56.039Z,17.60
2019-04-03T09:30:25.462Z,16.73
2019-04-03T09:32:54.786Z,19.07
2019-04-03T09:35:24.346Z,17.40
2019-04-03T09:37:53.776Z,17.63
2019-04-03T09:40:23.079Z,18.30
2019-04-03T09:42:52.494Z,18.97
2019-04-03T09:45:21.816Z,17.47
2019-04-03T09:47:51.203Z,17.40
2019-04-03T09:50:22.609Z,17.83
2019-04-03T09:52:54.127Z,16.00
2019-04-03T09:55:22.982Z,15.93
2019-04-03T09:57:53.269Z,15.77
2019-04-03T10:00:23.145Z,14.87
2019-04-03T10:02:52.465Z,15.30
2019-04-03T10:05:21.957Z,14.67
2019-04-03T10:07:51.547Z,15.97
2019-04-03T10:10:21.409Z,15.33
2019-04-03T10:12:53.651Z,15.33
2019-04-03T10:15:21.951Z,15.07
2019-04-03T10:17:51.313Z,14.20
2019-04-03T10:20:21.201Z,14.87
2019-04-03T10:22:50.660Z,14.17
2019-04-03T10:25:20.028Z,13.97
2019-04-03T10:27:49.353Z,13.70
2019-04-03T10:30:21.569Z,12.87
2019-04-03T10:32:50.528Z,14.87
2019-04-03T10:35:19.879Z,12.13
2019-04-03T10:37:49.292Z,13.17
2019-04-03T10:40:19.025Z,12.93
2019-04-03T10:42:48.396Z,11.70
2019-04-03T10:45:20.166Z,12.87
2019-04-03T10:47:49.517Z,12.53
2019-04-03T10:50:19.701Z,12.10
2019-04-03T10:52:49.328Z,11.57
2019-04-03T10:55:19.173Z,10.07
2019-04-03T10:57:48.589Z,10.17
2019-04-03T11:00:18.343Z,8.77
2019-04-03T11:02:47.665Z,9.43
2019-04-03T11:05:17.827Z,9.27
2019-04-03T11:07:48.027Z,11.00
2019-04-03T11:10:17.711Z,9.37
2019-04-03T11:12:47.114Z,9.03
2019-04-03T11:15:16.985Z,9.23
2019-04-03T11:17:48.467Z,9.83
2019-04-03T11:20:17.641Z,9.10
2019-04-03T11:22:48.304Z,10.10
2019-04-03T11:25:18.356Z,10.63
2019-04-03T11:27:47.851Z,9.87
2019-04-03T11:30:54.599Z,10.00
2019-04-03T11:32:52.612Z,11.33
2019-04-03T11:35:22.456Z,11.33
2019-04-03T11:37:52.271Z,10.80
2019-04-03T11:40:25.500Z,11.77
2019-04-03T11:42:55.415Z,10.90
2019-04-03T11:45:24.953Z,11.47
2019-04-03T11:47:57.159Z,11.50
2019-04-03T11:50:26.594Z,11.37
2019-04-03T11:52:55.994Z,11.07
2019-04-03T11:55:25.685Z,11.33
2019-04-03T11:57:55.065Z,11.03
2019-04-03T12:00:29.317Z,16.67
2019-04-03T12:02:58.792Z,17.63
2019-04-03T12:05:28.245Z,19.17
2019-04-03T12:07:57.544Z,21.07
2019-04-03T12:10:26.915Z,21.03
2019-04-03T12:12:57.156Z,17.17
2019-04-03T12:15:26.834Z,16.20
2019-04-03T12:17:56.554Z,12.77
2019-04-03T12:20:29.612Z,13.20
2019-04-03T12:23:02.093Z,12.27
2019-04-03T12:25:34.207Z,12.20
2019-04-03T12:28:02.675Z,13.37
2019-04-03T12:30:31.992Z,13.67
2019-04-03T12:33:01.312Z,15.17
2019-04-03T12:35:31.963Z,15.83
2019-04-03T12:38:03.028Z,15.40
2019-04-03T12:40:33.640Z,14.80
2019-04-03T12:43:03.237Z,15.73
2019-04-03T12:45:32.769Z,15.37
2019-04-03T12:48:02.209Z,17.53
2019-04-03T12:50:31.748Z,15.97
2019-04-03T12:53:05.451Z,17.07
2019-04-03T12:55:42.198Z,17.47
2019-04-03T12:58:16.896Z,17.10
2019-04-03T13:00:46.774Z,18.03
2019-04-03T13:03:24.254Z,19.13
2019-04-03T13:06:01.817Z,18.13
2019-04-03T13:08:43.850Z,17.83
2019-04-03T13:11:20.553Z,17.87
2019-04-03T13:14:52.938Z,17.57
2019-04-03T13:20:38.231Z,18.33
2019-04-03T13:23:18.259Z,18.53
2019-04-03T13:25:52.885Z,17.70
2019-04-03T13:28:46.016Z,19.03
2019-04-03T13:31:27.516Z,18.03
2019-04-03T13:34:09.623Z,18.83
2019-04-03T13:40:06.884Z,18.53
2019-04-03T13:43:04.888Z,17.73
2019-04-03T13:45:39.015Z,18.50
2019-04-03T13:48:13.437Z,18.40
2019-04-03T13:50:56.190Z,17.77
2019-04-03T13:53:39.829Z,18.90
2019-04-03T13:56:24.947Z,18.90
2019-04-03T13:59:01.218Z,18.63
2019-04-03T14:04:51.176Z,18.73
2019-04-03T14:07:24.750Z,18.47
2019-04-03T14:10:03.298Z,20.43
2019-04-03T14:12:33.118Z,17.47
2019-04-03T14:15:06.405Z,19.03
2019-04-03T14:17:39.697Z,18.33
2019-04-03T14:20:51.938Z,18.50
2019-04-03T14:23:34.140Z,18.80
2019-04-03T14:26:08.435Z,18.10
2019-04-03T14:28:42.033Z,18.77
2019-04-03T14:31:34.304Z,19.10
2019-04-03T14:34:05.152Z,19.90
2019-04-03T14:37:18.647Z,17.50
2019-04-03T14:39:21.838Z,18.97
2019-04-03T14:42:09.469Z,19.67
2019-04-03T14:44:45.977Z,18.07
2019-04-03T14:48:12.818Z,18.53
2019-04-03T14:50:53.308Z,18.57
2019-04-03T14:53:25.911Z,18.67
2019-04-03T14:56:03.081Z,19.80
2019-04-03T14:58:32.690Z,20.07
2019-04-03T15:01:11.792Z,18.47
2019-04-03T15:03:42.765Z,18.57
2019-04-03T15:06:17.812Z,19.93
2019-04-03T15:08:50.266Z,21.07
2019-04-03T15:11:23.537Z,19.30
2019-04-03T15:13:56.543Z,18.30
2019-04-03T15:16:45.507Z,18.53
2019-04-03T15:19:16.712Z,18.20
2019-04-03T15:21:47.693Z,17.43
2019-04-03T15:24:17.053Z,18.97
2019-04-03T15:26:46.853Z,18.73
2019-04-03T15:29:16.222Z,18.80
2019-04-03T15:31:46.816Z,19.33
2019-04-03T15:34:16.307Z,18.70
2019-04-03T15:36:45.709Z,17.97
2019-04-03T15:39:16.805Z,19.63
2019-04-03T15:41:46.279Z,18.93
2019-04-03T15:44:15.755Z,19.13
2019-04-03T15:46:50.537Z,18.80
2019-04-03T15:49:20.040Z,20.77
2019-04-03T15:51:49.397Z,18.83
2019-04-03T15:54:21.741Z,18.73
2019-04-03T15:56:52.003Z,18.23
2019-04-03T15:59:21.786Z,18.17
2019-04-03T16:01:51.527Z,17.93
2019-04-03T16:04:21.131Z,18.40
2019-04-03T16:06:50.636Z,18.10
2019-04-03T16:09:20.086Z,18.57
2019-04-03T16:11:49.546Z,18.87
2019-04-03T16:14:20.428Z,16.90
2019-04-03T16:16:51.307Z,17.97
2019-04-03T16:19:33.073Z,17.37
2019-04-03T16:22:04.835Z,17.53
2019-04-03T16:24:39.605Z,18.93
2019-04-03T16:27:15.291Z,18.07
2019-04-03T16:29:44.711Z,18.23
2019-04-03T16:32:19.825Z,20.10
2019-04-03T16:35:01.830Z,18.30
2019-04-03T16:37:28.791Z,20.27
2019-04-03T16:40:06.187Z,20.73
2019-04-03T16:42:39.456Z,21.97
2019-04-03T16:45:17.476Z,20.60
2019-04-03T16:47:46.942Z,20.63
2019-04-03T16:50:18.552Z,21.13
2019-04-03T16:53:00.078Z,20.27
2019-04-03T16:55:34.118Z,21.77
2019-04-03T16:58:04.005Z,22.93
2019-04-03T17:00:33.591Z,22.33
2019-04-03T17:03:05.673Z,22.83
2019-04-03T17:05:36.192Z,22.30
2019-04-03T17:08:05.555Z,20.83
2019-04-03T17:10:42.637Z,21.03
2019-04-03T17:13:12.036Z,21.83
2019-04-03T17:15:41.930Z,22.67
2019-04-03T17:18:11.391Z,21.33
2019-04-03T17:20:44.037Z,22.63
2019-04-03T17:23:16.643Z,21.70
2019-04-03T17:29:02.428Z,22.17
2019-04-03T17:31:28.743Z,21.77
2019-04-03T17:33:59.699Z,23.47
2019-04-03T17:37:03.415Z,22.53
2019-04-03T17:39:52.487Z,22.77
2019-04-03T17:42:25.675Z,21.53
2019-04-03T17:44:54.017Z,21.00
2019-04-03T17:47:24.363Z,21.40
2019-04-03T17:49:53.784Z,21.57
2019-04-03T17:52:23.094Z,23.00
2019-04-03T17:54:52.535Z,22.77
2019-04-03T17:57:23.673Z,22.60
2019-04-03T18:03:20.030Z,22.47
2019-04-03T18:05:49.509Z,21.87
2019-04-03T18:21:59.893Z,21.93
2019-04-03T18:24:30.229Z,23.60
2019-04-03T18:27:02.559Z,24.63
2019-04-03T18:29:37.305Z,23.80
2019-04-03T18:32:06.219Z,29.83
2019-04-03T18:34:35.543Z,26.17
2019-04-03T18:37:08.193Z,49.50
2019-04-03T18:39:40.266Z,40.63
2019-04-03T18:42:08.525Z,27.53
2019-04-03T18:44:37.873Z,25.10
2019-04-03T18:47:10.566Z,24.93
2019-04-03T18:49:43.174Z,24.33
2019-04-03T18:52:11.085Z,21.67
2019-04-03T18:54:42.281Z,24.30
2019-04-03T18:57:11.457Z,23.17
2019-04-03T18:59:40.805Z,24.13
2019-04-03T19:02:10.118Z,22.73
2019-04-03T19:05:00.901Z,21.93
2019-04-03T19:07:27.803Z,22.83
2019-04-03T19:10:07.140Z,21.97
2019-04-03T19:12:35.355Z,23.27
2019-04-03T19:15:10.146Z,22.77
2019-04-03T19:17:39.533Z,25.07
2019-04-03T19:20:11.268Z,23.77
2019-04-03T19:23:22.649Z,22.80
2019-04-03T19:25:27.897Z,22.47
2019-04-03T19:27:58.622Z,24.10
2019-04-03T19:30:28.679Z,24.27
2019-04-03T19:32:58.351Z,23.83
2019-04-03T19:35:28.696Z,22.53
2019-04-03T19:38:00.545Z,22.37
2019-04-03T19:40:30.146Z,24.80
2019-04-03T19:43:01.302Z,23.13
2019-04-03T19:45:32.313Z,25.03
2019-04-03T19:48:04.832Z,24.40
2019-04-03T19:50:34.164Z,28.30
2019-04-03T19:53:09.251Z,25.00
2019-04-03T19:55:40.290Z,25.67
2019-04-03T19:58:09.708Z,24.87
2019-04-03T20:00:58.513Z,25.10
2019-04-03T20:03:31.440Z,24.10
2019-04-03T20:12:54.264Z,18.47
2019-04-03T20:15:26.796Z,15.33
2019-04-03T20:18:02.320Z,9.60
2019-04-03T20:20:41.213Z,10.47
2019-04-03T20:23:11.629Z,8.83
2019-04-03T20:25:51.175Z,8.97
2019-04-03T20:28:24.130Z,8.17
2019-04-03T20:30:53.729Z,8.03
2019-04-03T20:33:25.737Z,7.50
2019-04-03T20:35:58.441Z,8.20
2019-04-03T20:38:27.976Z,7.80
2019-04-03T20:41:03.905Z,9.37
2019-04-03T20:43:35.034Z,9.43
2019-04-03T20:46:06.122Z,22.87
2019-04-03T20:48:42.723Z,11.10
2019-04-03T20:51:13.209Z,9.73
2019-04-03T20:53:43.943Z,9.17
2019-04-03T20:56:16.465Z,9.27
2019-04-03T21:01:38.765Z,9.97
2019-04-03T21:04:24.761Z,10.13
2019-04-03T21:07:01.662Z,10.60
2019-04-03T21:09:50.820Z,11.10
2019-04-03T21:12:20.883Z,10.17
2019-04-03T21:14:50.431Z,12.30
2019-04-03T21:17:19.820Z,11.83
2019-04-03T21:19:52.333Z,11.20
2019-04-03T21:22:22.236Z,12.30
2019-04-03T21:24:51.596Z,11.17
2019-04-03T21:27:21.054Z,12.93
2019-04-03T21:29:50.393Z,11.60
2019-04-03T21:32:19.849Z,12.87
2019-04-03T21:34:49.430Z,13.00
2019-04-03T21:37:19.759Z,12.20
2019-04-03T21:39:49.159Z,12.83
2019-04-03T21:42:18.631Z,12.37
2019-04-03T21:44:48.218Z,13.03
2019-04-03T21:47:17.618Z,13.40
2019-04-03T21:49:47.678Z,13.87
2019-04-03T21:52:17.739Z,13.27
2019-04-03T21:54:47.925Z,12.77
2019-04-03T21:57:17.411Z,13.70
2019-04-03T21:59:46.877Z,15.30
2019-04-03T22:02:16.720Z,13.70
2019-04-03T22:04:46.081Z,14.57
2019-04-03T22:07:15.490Z,13.43
2019-04-03T22:09:44.874Z,14.57
2019-04-03T22:12:14.764Z,14.03
2019-04-03T22:14:44.088Z,14.23
2019-04-03T22:17:14.557Z,13.90
2019-04-03T22:19:44.106Z,14.03
2019-04-03T22:22:14.619Z,13.03
2019-04-03T22:24:44.241Z,12.17
2019-04-03T22:27:13.639Z,13.23
2019-04-03T22:29:43.082Z,13.37
2019-04-03T22:32:12.488Z,12.83
2019-04-03T22:34:42.125Z,12.80
2019-04-03T22:37:11.995Z,13.50
2019-04-03T22:39:42.476Z,13.17
2019-04-03T22:42:14.725Z,12.10
2019-04-03T22:44:44.145Z,12.80
2019-04-03T22:47:14.015Z,12.87
2019-04-03T22:49:43.463Z,13.60
2019-04-03T22:52:12.991Z,14.17
2019-04-03T22:54:43.859Z,14.00
2019-04-03T22:57:15.795Z,12.57
2019-04-03T22:59:45.180Z,12.13
2019-04-03T23:02:14.647Z,12.07
2019-04-03T23:04:46.261Z,13.00
2019-04-03T23:07:16.800Z,11.00
2019-04-03T23:09:46.635Z,12.50
2019-04-03T23:12:16.608Z,12.67
2019-04-03T23:14:47.132Z,11.77
2019-04-03T23:17:16.481Z,11.83
2019-04-03T23:19:45.932Z,12.93
2019-04-03T23:22:15.853Z,11.00
2019-04-03T23:24:45.228Z,10.20
2019-04-03T23:27:14.634Z,9.93
2019-04-03T23:29:44.214Z,9.63
2019-04-03T23:32:15.434Z,9.43
2019-04-03T23:34:49.366Z,9.57
2019-04-03T23:37:17.819Z,9.70
2019-04-03T23:39:47.906Z,10.30
2019-04-03T23:42:17.279Z,9.83
2019-04-03T23:44:47.170Z,10.90
2019-04-03T23:47:17.096Z,10.27
2019-04-03T23:49:46.522Z,9.03
2019-04-03T23:52:16.645Z,10.17
2019-04-03T23:54:46.292Z,10.37
2019-04-03T23:57:17.233Z,11.07
2019-04-03T23:59:46.872Z,11.80
